Terminal Aerodrome Forecast
Issued by NWS

Home | Current Version | Previous Version | Text Only | Print | Product List | Glossary On
Versions: 1 2 3 4 5 6 7 8 9 10 11 12 13 14 15 16 17 18 19 20 21 22 23 24 25 26 27 28 29 30
000
FTUS43 KMKX 281137
TAFUES
TAF
KUES 281137Z 2812/0112 24005KT P6SM SKC
     FM282100 18007KT P6SM SCT250
     FM010200 VRB03KT P6SM OVC080
     FM010400 19003KT P6SM OVC040
      TEMPO 0104/0105 6SM -SN
     FM010500 19004KT P6SM OVC025
      TEMPO 0105/0106 6SM -SN=

USA.gov is the U.S. government's official web portal to all federal, state and local government web resources and services.